Terminal Aerodrome Forecast
Issued by NWS

Home | Current Version | Previous Version | Graphics & Text | Print | Product List | Glossary Off
Versions: 1 2 3 4 5 6 7 8 9 10 11 12 13 14 15 16 17 18 19 20 21 22 23 24 25

979
FTUS43 KLOT 140854 AAA
TAFORD
TAF AMD
KORD 140854Z 1409/1512 15007KT P6SM OVC200
     FM141400 15012KT P6SM OVC060
     FM141630 15014G18KT 2SM -SN BR OVC015
      TEMPO 1417/1420 1SM -SN BR OVC010
     FM142100 15014G20KT 5SM -SN BR OVC020
      TEMPO 1423/1502 2SM -SN BR OVC015=

USA.gov is the U.S. government's official web portal to all federal, state and local government web resources and services.